Chesterton, Indiana
Current Conditions -  °F | °C
As of 10:56 AM on Thursday 25 Dec 2014 (Local Time) from KVPZ Reporting Station
Overcast Overcast  
Wind Chill: 26°   Ceiling: 1900
Heat Index: 36°   Visibility: 10mi
Dew Point: 29°   Wind: 17mph
Humidity: 76%   Direction: 230°SW
Pressure: 30"   Gusts: NA
Location:  41.61°N, 87.06°W
Report Text: KVPZ 251656Z AUTO 23015KT 10SM OVC019 02/M02 A3000 RMK AO2 SLP165 T00221017 TSNO
Loading
Personal Weather Stations






























Interactive Weather Map New forecast layout! Learn more

10-Day Weather Forecast

Advertisements
Track Severe Weather on mobile